createdAt,value
2019-03-05T00:00:34.494Z,44.31
2019-03-05T00:01:35.642Z,43.83
2019-03-05T00:02:34.590Z,43.51
2019-03-05T00:03:34.582Z,49.31
2019-03-05T00:04:35.052Z,45.76
2019-03-05T00:05:34.529Z,43.99
2019-03-05T00:06:34.499Z,44.31
2019-03-05T00:07:34.576Z,43.83
2019-03-05T00:08:34.593Z,43.02
2019-03-05T00:09:36.627Z,42.86
2019-03-05T00:10:34.486Z,44.79
2019-03-05T00:11:34.428Z,44.96
2019-03-05T00:12:34.442Z,45.76
2019-03-05T00:13:34.435Z,46.89
2019-03-05T00:14:34.417Z,45.44
2019-03-05T00:15:34.536Z,46.89
2019-03-05T00:16:34.417Z,45.28
2019-03-05T00:17:34.431Z,44.79
2019-03-05T00:18:34.397Z,44.47
2019-03-05T00:19:34.382Z,43.67
2019-03-05T00:20:34.416Z,44.15
2019-03-05T00:21:34.379Z,46.08
2019-03-05T00:22:34.382Z,44.79
2019-03-05T00:23:34.372Z,44.47
2019-03-05T00:24:34.348Z,45.76
2019-03-05T00:25:34.363Z,47.21
2019-03-05T00:26:34.381Z,45.44
2019-03-05T00:27:34.341Z,45.12
2019-03-05T00:28:35.256Z,44.31
2019-03-05T00:29:34.349Z,44.79
2019-03-05T00:30:34.319Z,45.12
2019-03-05T00:31:34.314Z,43.02
2019-03-05T00:32:34.303Z,45.44
2019-03-05T00:33:34.279Z,44.79
2019-03-05T00:34:34.274Z,44.96
2019-03-05T00:35:34.337Z,45.44
2019-03-05T00:36:34.306Z,46.25
2019-03-05T00:37:34.258Z,47.70
2019-03-05T00:38:34.259Z,48.98
2019-03-05T00:39:34.264Z,47.70
2019-03-05T00:40:34.249Z,46.89
2019-03-05T00:41:34.260Z,45.12
2019-03-05T00:42:34.304Z,44.79
2019-03-05T00:43:34.258Z,44.47
2019-03-05T00:44:34.221Z,45.92
2019-03-05T00:45:34.215Z,44.31
2019-03-05T00:46:34.211Z,46.25
2019-03-05T00:47:34.202Z,46.57
2019-03-05T00:48:34.196Z,44.96
2019-03-05T00:49:34.187Z,44.96
2019-03-05T00:50:34.181Z,46.41
2019-03-05T00:51:34.225Z,45.28
2019-03-05T00:52:34.183Z,44.47
2019-03-05T00:53:34.179Z,42.70
2019-03-05T00:54:34.176Z,44.63
2019-03-05T00:55:34.172Z,50.76
2019-03-05T00:56:34.153Z,46.41
2019-03-05T00:57:34.142Z,43.51
2019-03-05T00:58:34.178Z,42.70
2019-03-05T00:59:34.186Z,42.38
2019-03-05T01:00:34.133Z,42.38
2019-03-05T01:01:34.119Z,42.70
2019-03-05T01:02:34.120Z,43.34
2019-03-05T01:03:34.114Z,45.76
2019-03-05T01:04:34.147Z,45.28
2019-03-05T01:05:34.110Z,44.96
2019-03-05T01:06:34.118Z,45.60
2019-03-05T01:07:34.166Z,45.28
2019-03-05T01:08:34.111Z,46.73
2019-03-05T01:09:34.080Z,45.60
2019-03-05T01:10:34.075Z,45.76
2019-03-05T01:11:34.142Z,44.96
2019-03-05T01:12:34.067Z,43.51
2019-03-05T01:13:34.097Z,46.25
2019-03-05T01:14:34.203Z,47.53
2019-03-05T01:15:34.119Z,49.31
2019-03-05T01:16:34.180Z,46.73
2019-03-05T01:17:34.152Z,43.02
2019-03-05T01:18:34.253Z,43.99
2019-03-05T01:19:34.092Z,43.67
2019-03-05T01:20:34.047Z,43.67
2019-03-05T01:21:34.044Z,46.73
2019-03-05T01:22:34.016Z,45.28
2019-03-05T01:23:34.011Z,46.25
2019-03-05T01:24:34.019Z,48.02
2019-03-05T01:25:34.016Z,45.76
2019-03-05T01:26:34.064Z,46.41
2019-03-05T01:27:33.983Z,44.63
2019-03-05T01:28:34.054Z,46.25
2019-03-05T01:29:34.044Z,45.12
2019-03-05T01:30:33.968Z,45.92
2019-03-05T01:31:33.962Z,46.25
2019-03-05T01:32:34.092Z,45.44
2019-03-05T01:33:34.014Z,46.73
2019-03-05T01:34:34.018Z,45.28
2019-03-05T01:35:33.954Z,46.41
2019-03-05T01:36:33.934Z,46.08
2019-03-05T01:37:33.938Z,44.47
2019-03-05T01:38:33.913Z,45.76
2019-03-05T01:39:33.904Z,45.92
2019-03-05T01:40:33.900Z,47.37
2019-03-05T01:41:33.905Z,45.76
2019-03-05T01:42:33.911Z,44.47
2019-03-05T01:43:33.888Z,44.47
2019-03-05T01:44:33.886Z,45.12
2019-03-05T01:45:33.983Z,44.79
2019-03-05T01:46:33.855Z,45.44
2019-03-05T01:47:33.888Z,44.15
2019-03-05T01:48:33.858Z,43.83
2019-03-05T01:49:33.856Z,45.28
2019-03-05T01:50:33.856Z,43.51
2019-03-05T01:51:33.816Z,43.02
2019-03-05T01:52:33.911Z,41.25
2019-03-05T01:53:33.830Z,43.02
2019-03-05T01:54:33.879Z,43.02
2019-03-05T01:55:33.825Z,43.34
2019-03-05T01:56:33.797Z,41.73
2019-03-05T01:57:33.827Z,43.51
2019-03-05T01:58:33.828Z,42.38
2019-03-05T01:59:33.834Z,42.38
2019-03-05T02:00:33.875Z,42.86
2019-03-05T02:01:33.781Z,42.70
2019-03-05T02:02:33.816Z,41.89
2019-03-05T02:03:33.839Z,41.41
2019-03-05T02:04:33.787Z,43.02
2019-03-05T02:05:33.747Z,43.02
2019-03-05T02:06:33.785Z,42.54
2019-03-05T02:07:33.769Z,43.67
2019-03-05T02:08:33.713Z,43.34
2019-03-05T02:09:33.730Z,46.25
2019-03-05T02:10:33.727Z,43.51
2019-03-05T02:11:33.716Z,43.99
2019-03-05T02:12:33.747Z,43.51
2019-03-05T02:13:34.701Z,42.70
2019-03-05T02:14:33.691Z,46.08
2019-03-05T02:15:33.682Z,41.73
2019-03-05T02:16:33.706Z,41.41
2019-03-05T02:17:33.749Z,41.09
2019-03-05T02:18:33.703Z,41.89
2019-03-05T02:19:33.662Z,44.15
2019-03-05T02:20:33.710Z,42.70
2019-03-05T02:21:33.696Z,42.38
2019-03-05T02:22:33.874Z,43.67
2019-03-05T02:23:33.661Z,45.60
2019-03-05T02:24:33.642Z,45.60
2019-03-05T02:25:33.643Z,47.53
2019-03-05T02:26:33.637Z,42.86
2019-03-05T02:27:33.629Z,44.47
2019-03-05T02:28:33.678Z,44.15
2019-03-05T02:29:33.703Z,45.44
2019-03-05T02:30:33.634Z,44.96
2019-03-05T02:31:33.607Z,45.92
2019-03-05T02:32:33.632Z,47.53
2019-03-05T02:33:33.667Z,44.47
2019-03-05T02:34:33.623Z,43.34
2019-03-05T02:35:33.613Z,43.02
2019-03-05T02:36:33.602Z,43.34
2019-03-05T02:37:33.587Z,43.51
2019-03-05T02:38:33.593Z,45.44
2019-03-05T02:39:33.612Z,44.31
2019-03-05T02:40:33.630Z,44.47
2019-03-05T02:41:33.584Z,44.96
2019-03-05T02:42:33.571Z,44.15
2019-03-05T02:43:33.583Z,45.12
2019-03-05T02:44:33.541Z,46.57
2019-03-05T02:45:33.531Z,43.99
2019-03-05T02:46:33.521Z,45.44
2019-03-05T02:47:33.563Z,45.12
2019-03-05T02:48:33.592Z,45.44
2019-03-05T02:49:33.581Z,46.57
2019-03-05T02:50:33.547Z,44.96
2019-03-05T02:51:33.516Z,47.37
2019-03-05T02:52:33.528Z,48.50
2019-03-05T02:53:33.667Z,46.41
2019-03-05T02:54:33.494Z,45.76
2019-03-05T02:55:33.502Z,45.44
2019-03-05T02:56:33.526Z,45.92
2019-03-05T02:57:33.552Z,46.73
2019-03-05T02:58:33.501Z,46.25
2019-03-05T02:59:33.516Z,47.05
2019-03-05T03:00:33.460Z,46.08
2019-03-05T03:01:33.444Z,43.99
2019-03-05T03:02:33.449Z,44.96
2019-03-05T03:03:33.464Z,45.76
2019-03-05T03:04:33.422Z,48.02
2019-03-05T03:05:33.411Z,46.57
2019-03-05T03:06:33.395Z,46.25
2019-03-05T03:07:33.423Z,46.08
2019-03-05T03:08:33.403Z,45.28
2019-03-05T03:09:33.402Z,46.57
2019-03-05T03:10:33.404Z,47.53
2019-03-05T03:11:33.444Z,48.02
2019-03-05T03:12:33.387Z,47.53
2019-03-05T03:13:33.397Z,46.73
2019-03-05T03:14:33.417Z,46.73
2019-03-05T03:15:33.365Z,48.34
2019-03-05T03:16:33.377Z,46.57
2019-03-05T03:17:33.405Z,49.15
2019-03-05T03:18:33.445Z,46.41
2019-03-05T03:19:33.355Z,46.08
2019-03-05T03:20:33.385Z,47.05
2019-03-05T03:21:33.398Z,46.41
2019-03-05T03:22:33.362Z,45.92
2019-03-05T03:23:33.372Z,45.12
2019-03-05T03:24:33.363Z,44.47
2019-03-05T03:25:33.296Z,45.92
2019-03-05T03:26:33.308Z,46.08
2019-03-05T03:27:33.434Z,47.70
2019-03-05T03:28:33.360Z,47.86
2019-03-05T03:29:33.298Z,48.82
2019-03-05T03:30:33.317Z,49.95
2019-03-05T03:31:33.264Z,50.11
2019-03-05T03:32:33.282Z,48.02
2019-03-05T03:33:33.260Z,47.37
2019-03-05T03:34:33.275Z,44.96
2019-03-05T03:35:33.280Z,45.44
2019-03-05T03:36:33.309Z,45.28
2019-03-05T03:37:33.273Z,44.31
2019-03-05T03:38:33.311Z,46.89
2019-03-05T03:39:33.218Z,46.73
2019-03-05T03:40:33.210Z,47.05
2019-03-05T03:41:33.177Z,47.37
2019-03-05T03:42:33.165Z,50.11
2019-03-05T03:43:33.176Z,53.66
2019-03-05T03:44:33.172Z,53.50
2019-03-05T03:45:34.159Z,54.30
2019-03-05T03:46:33.150Z,54.46
2019-03-05T03:47:33.151Z,55.27
2019-03-05T03:48:33.142Z,52.85
2019-03-05T03:49:33.134Z,52.85
2019-03-05T03:50:33.125Z,49.95
2019-03-05T03:51:33.117Z,48.98
2019-03-05T03:52:33.114Z,47.53
2019-03-05T03:53:33.107Z,46.73
2019-03-05T03:54:33.115Z,47.86
2019-03-05T03:55:33.100Z,48.18
2019-03-05T03:56:33.096Z,47.05
2019-03-05T03:57:33.086Z,49.15
2019-03-05T03:58:33.093Z,48.02
2019-03-05T03:59:33.081Z,47.05
2019-03-05T04:00:33.068Z,47.53
2019-03-05T04:01:33.054Z,45.76
2019-03-05T04:02:33.051Z,44.47
2019-03-05T04:03:33.036Z,44.96
2019-03-05T04:04:33.040Z,45.92
2019-03-05T04:05:33.024Z,46.41
2019-03-05T04:06:33.026Z,46.08
2019-03-05T04:07:33.014Z,47.05
2019-03-05T04:08:33.011Z,46.08
2019-03-05T04:09:33.006Z,47.05
2019-03-05T04:10:32.993Z,45.76
2019-03-05T04:11:32.976Z,46.89
2019-03-05T04:12:32.976Z,46.57
2019-03-05T04:13:32.966Z,46.57
2019-03-05T04:14:32.972Z,46.89
2019-03-05T04:15:32.958Z,46.89
2019-03-05T04:16:32.944Z,46.89
2019-03-05T04:17:32.934Z,47.05
2019-03-05T04:18:32.948Z,48.82
2019-03-05T04:19:32.919Z,48.66
2019-03-05T04:20:32.918Z,48.02
2019-03-05T04:21:32.904Z,47.53
2019-03-05T04:22:32.909Z,47.05
2019-03-05T04:23:32.890Z,48.50
2019-03-05T04:24:32.896Z,46.89
2019-03-05T04:25:32.887Z,46.08
2019-03-05T04:26:32.875Z,47.86
2019-03-05T04:27:32.856Z,47.86
2019-03-05T04:28:32.852Z,50.11
2019-03-05T04:29:32.854Z,47.53
2019-03-05T04:30:32.856Z,47.53
2019-03-05T04:31:32.855Z,45.92
2019-03-05T04:32:32.849Z,48.02
2019-03-05T04:33:32.839Z,48.02
2019-03-05T04:34:32.848Z,49.31
2019-03-05T04:35:32.835Z,48.02
2019-03-05T04:36:32.814Z,47.53
2019-03-05T04:37:32.809Z,46.08
2019-03-05T04:39:04.813Z,46.25
2019-03-05T04:39:32.824Z,48.82
2019-03-05T04:40:32.825Z,48.98
2019-03-05T04:41:32.826Z,49.63
2019-03-05T04:42:32.794Z,48.82
2019-03-05T04:43:33.802Z,48.50
2019-03-05T04:44:32.827Z,48.98
2019-03-05T04:45:32.844Z,48.34
2019-03-05T04:46:32.802Z,47.53
2019-03-05T04:47:32.777Z,47.70
2019-03-05T04:48:32.775Z,45.92
2019-03-05T04:49:32.782Z,46.25
2019-03-05T04:50:33.850Z,48.02
2019-03-05T04:51:32.774Z,47.05
2019-03-05T04:52:32.769Z,46.57
2019-03-05T04:53:32.758Z,46.25
2019-03-05T04:54:32.823Z,46.08
2019-03-05T04:55:32.752Z,45.12
2019-03-05T04:56:32.875Z,47.53
2019-03-05T04:57:32.760Z,47.05
2019-03-05T04:58:32.727Z,47.86
2019-03-05T04:59:32.712Z,48.34
2019-03-05T05:00:32.706Z,48.50
2019-03-05T05:01:32.747Z,47.70
2019-03-05T05:02:32.795Z,47.53
2019-03-05T05:03:32.699Z,46.89
2019-03-05T05:04:32.696Z,46.89
2019-03-05T05:05:32.672Z,47.70
2019-03-05T05:06:32.700Z,49.15
2019-03-05T05:07:32.689Z,48.82
2019-03-05T05:08:32.684Z,47.70
2019-03-05T05:09:32.654Z,47.05
2019-03-05T05:10:32.653Z,46.89
2019-03-05T05:11:32.685Z,46.73
2019-03-05T05:12:33.583Z,47.53
2019-03-05T05:13:35.495Z,48.34
2019-03-05T05:14:32.658Z,47.70
2019-03-05T05:15:32.640Z,48.34
2019-03-05T05:16:32.641Z,48.82
2019-03-05T05:17:32.749Z,48.02
2019-03-05T05:18:32.648Z,49.31
2019-03-05T05:19:32.609Z,48.82
2019-03-05T05:20:32.587Z,47.21
2019-03-05T05:21:33.581Z,48.50
2019-03-05T05:22:32.873Z,47.37
2019-03-05T05:23:32.674Z,47.05
2019-03-05T05:24:32.768Z,48.98
2019-03-05T05:25:32.650Z,49.47
2019-03-05T05:26:33.081Z,49.15
2019-03-05T05:27:32.678Z,47.53
2019-03-05T05:28:32.554Z,46.89
2019-03-05T05:29:32.582Z,48.34
2019-03-05T05:30:32.539Z,48.50
2019-03-05T05:31:32.537Z,49.31
2019-03-05T05:32:32.629Z,47.70
2019-03-05T05:33:33.325Z,47.37
2019-03-05T05:34:32.685Z,47.21
2019-03-05T05:35:32.520Z,48.02
2019-03-05T05:36:32.518Z,46.73
2019-03-05T05:37:32.495Z,48.50
2019-03-05T05:38:32.463Z,48.66
2019-03-05T05:39:32.532Z,47.21
2019-03-05T05:40:32.516Z,46.25
2019-03-05T05:41:33.081Z,46.73
2019-03-05T05:42:32.478Z,47.05
2019-03-05T05:43:33.165Z,47.21
2019-03-05T05:44:32.465Z,47.53
2019-03-05T05:45:32.468Z,48.34
2019-03-05T05:46:32.421Z,48.34
2019-03-05T05:47:32.401Z,47.53
2019-03-05T05:48:32.454Z,48.50
2019-03-05T05:49:32.480Z,47.70
2019-03-05T05:50:32.424Z,49.31
2019-03-05T05:51:32.397Z,48.34
2019-03-05T05:52:32.526Z,49.31
2019-03-05T05:53:32.555Z,49.31
2019-03-05T05:54:32.410Z,47.86
2019-03-05T05:55:32.410Z,47.05
2019-03-05T05:56:32.390Z,48.02
2019-03-05T05:57:32.399Z,46.89
2019-03-05T05:58:32.386Z,48.02
2019-03-05T05:59:32.474Z,48.50
2019-03-05T06:00:32.407Z,47.53
2019-03-05T06:01:32.366Z,47.86
2019-03-05T06:02:33.081Z,48.66
2019-03-05T06:03:32.358Z,46.89
2019-03-05T06:04:32.414Z,46.41
2019-03-05T06:05:32.598Z,47.86
2019-03-05T06:06:32.431Z,48.18
2019-03-05T06:07:32.366Z,47.53
2019-03-05T06:08:33.087Z,48.50
2019-03-05T06:09:35.089Z,48.98
2019-03-05T06:10:32.311Z,48.02
2019-03-05T06:11:32.394Z,48.18
2019-03-05T06:12:33.366Z,48.02
2019-03-05T06:13:32.423Z,49.47
2019-03-05T06:14:32.419Z,48.02
2019-03-05T06:15:32.382Z,48.18
2019-03-05T06:16:32.283Z,47.70
2019-03-05T06:17:32.373Z,48.02
2019-03-05T06:18:33.083Z,48.34
2019-03-05T06:19:32.354Z,47.53
2019-03-05T06:20:34.028Z,46.25
2019-03-05T06:21:32.343Z,49.15
2019-03-05T06:22:32.275Z,50.76
2019-03-05T06:23:32.267Z,48.18
2019-03-05T06:24:32.223Z,47.05
2019-03-05T06:25:32.314Z,47.53
2019-03-05T06:26:32.271Z,47.37
2019-03-05T06:27:32.207Z,46.57
2019-03-05T06:28:32.191Z,46.73
2019-03-05T06:29:32.200Z,46.73
2019-03-05T06:30:34.125Z,47.53
2019-03-05T06:31:32.256Z,47.53
2019-03-05T06:32:32.179Z,46.73
2019-03-05T06:33:32.172Z,46.57
2019-03-05T06:34:32.254Z,46.41
2019-03-05T06:35:32.191Z,47.05
2019-03-05T06:36:34.088Z,47.05
2019-03-05T06:37:33.275Z,46.25
2019-03-05T06:38:34.092Z,47.70
2019-03-05T06:39:32.145Z,46.41
2019-03-05T06:40:32.136Z,46.73
2019-03-05T06:41:33.224Z,47.86
2019-03-05T06:42:32.197Z,46.73
2019-03-05T06:43:32.118Z,47.37
2019-03-05T06:44:32.104Z,47.86
2019-03-05T06:45:32.099Z,47.53
2019-03-05T06:46:32.709Z,47.53
2019-03-05T06:47:32.103Z,47.53
2019-03-05T06:48:32.207Z,48.02
2019-03-05T06:49:32.061Z,47.21
2019-03-05T06:50:32.106Z,50.27
2019-03-05T06:51:32.093Z,49.79
2019-03-05T06:52:32.124Z,47.70
2019-03-05T06:53:32.024Z,45.76
2019-03-05T06:54:32.080Z,45.60
2019-03-05T06:55:32.088Z,45.92
2019-03-05T06:56:32.041Z,46.89
2019-03-05T06:57:32.054Z,48.18
2019-03-05T06:58:32.038Z,48.02
2019-03-05T06:59:32.038Z,48.02
2019-03-05T07:00:32.077Z,46.89
2019-03-05T07:01:32.025Z,47.37
2019-03-05T07:02:31.985Z,48.02
2019-03-05T07:03:31.979Z,46.41
2019-03-05T07:04:31.967Z,46.73
2019-03-05T07:05:31.979Z,46.41
2019-03-05T07:06:33.091Z,46.57
2019-03-05T07:07:32.006Z,47.37
2019-03-05T07:08:32.830Z,46.57
2019-03-05T07:09:32.952Z,47.86
2019-03-05T07:10:31.946Z,47.53
2019-03-05T07:11:31.922Z,47.05
2019-03-05T07:12:32.749Z,47.21
2019-03-05T07:13:31.923Z,47.37
2019-03-05T07:14:31.927Z,48.34
2019-03-05T07:15:31.895Z,46.73
2019-03-05T07:16:31.874Z,46.57
2019-03-05T07:17:32.586Z,46.73
2019-03-05T07:18:32.043Z,47.70
2019-03-05T07:19:31.909Z,47.05
2019-03-05T07:20:31.968Z,46.41
2019-03-05T07:21:31.895Z,45.76
2019-03-05T07:22:31.887Z,46.41
2019-03-05T07:23:31.868Z,46.25
2019-03-05T07:24:31.862Z,46.25
2019-03-05T07:25:31.843Z,46.25
2019-03-05T07:26:31.829Z,46.41
2019-03-05T07:27:31.845Z,46.08
2019-03-05T07:29:17.936Z,46.73
2019-03-05T07:29:31.794Z,48.82
2019-03-05T07:30:31.854Z,48.50
2019-03-05T07:31:31.777Z,48.82
2019-03-05T07:32:31.838Z,48.18
2019-03-05T07:33:33.646Z,49.15
2019-03-05T07:34:31.810Z,48.34
2019-03-05T07:35:31.819Z,48.82
2019-03-05T07:36:31.781Z,48.02
2019-03-05T07:38:04.191Z,46.41
2019-03-05T07:38:31.739Z,47.37
2019-03-05T07:39:31.741Z,47.53
2019-03-05T07:40:31.737Z,46.73
2019-03-05T07:41:31.724Z,48.50
2019-03-05T07:42:31.720Z,48.50
2019-03-05T07:43:36.394Z,48.50
2019-03-05T07:44:33.714Z,46.41
2019-03-05T07:45:31.705Z,47.86
2019-03-05T07:46:31.693Z,49.31
2019-03-05T07:47:31.683Z,46.41
2019-03-05T07:48:31.684Z,46.57
2019-03-05T07:49:42.951Z,46.73
2019-03-05T07:50:32.667Z,47.05
2019-03-05T07:51:31.658Z,45.76
2019-03-05T07:52:31.646Z,46.73
2019-03-05T07:53:31.666Z,46.08
2019-03-05T07:54:31.646Z,46.73
2019-03-05T07:55:31.637Z,47.21
2019-03-05T07:56:31.635Z,47.86
2019-03-05T07:57:31.620Z,48.02
2019-03-05T07:58:31.610Z,49.31
2019-03-05T07:59:31.620Z,48.18
2019-03-05T08:00:31.608Z,44.47
2019-03-05T08:01:31.590Z,46.41
2019-03-05T08:02:31.582Z,47.53
2019-03-05T08:03:31.580Z,46.89
2019-03-05T08:04:31.582Z,46.41
2019-03-05T08:05:31.584Z,46.73
2019-03-05T08:06:31.587Z,46.89
2019-03-05T08:07:31.580Z,47.21
2019-03-05T08:08:31.579Z,46.41
2019-03-05T08:09:31.574Z,46.89
2019-03-05T08:10:31.564Z,47.70
2019-03-05T08:11:31.919Z,47.53
2019-03-05T08:12:32.545Z,47.70
2019-03-05T08:13:31.527Z,47.21
2019-03-05T08:14:31.541Z,47.05
2019-03-05T08:15:31.530Z,46.57
2019-03-05T08:16:31.513Z,46.25
2019-03-05T08:17:31.527Z,48.98
2019-03-05T08:18:31.552Z,46.73
2019-03-05T08:19:31.530Z,46.73
2019-03-05T08:20:31.513Z,46.57
2019-03-05T08:21:31.499Z,46.73
2019-03-05T08:22:31.491Z,46.89
2019-03-05T08:23:31.499Z,46.25
2019-03-05T08:24:31.494Z,46.25
2019-03-05T08:25:31.477Z,47.37
2019-03-05T08:26:31.466Z,46.73
2019-03-05T08:27:31.463Z,47.86
2019-03-05T08:28:31.454Z,48.34
2019-03-05T08:29:31.455Z,49.47
2019-03-05T08:30:31.434Z,48.82
2019-03-05T08:31:31.434Z,49.15
2019-03-05T08:32:31.422Z,49.31
2019-03-05T08:33:31.413Z,49.15
2019-03-05T08:34:31.422Z,49.63
2019-03-05T08:35:31.415Z,48.98
2019-03-05T08:36:31.393Z,47.37
2019-03-05T08:37:31.383Z,47.70
2019-03-05T08:38:31.373Z,47.53
2019-03-05T08:39:31.390Z,45.76
2019-03-05T08:40:31.365Z,46.73
2019-03-05T08:41:31.366Z,47.05
2019-03-05T08:42:31.358Z,46.73
2019-03-05T08:43:31.351Z,48.02
2019-03-05T08:44:31.342Z,47.70
2019-03-05T08:45:31.345Z,48.02
2019-03-05T08:46:31.327Z,47.53
2019-03-05T08:47:31.318Z,48.02
2019-03-05T08:48:31.336Z,47.37
2019-03-05T08:49:31.328Z,49.31
2019-03-05T08:50:31.347Z,48.34
2019-03-05T08:51:31.312Z,46.89
2019-03-05T08:52:31.304Z,46.25
2019-03-05T08:53:31.299Z,46.73
2019-03-05T08:54:31.292Z,47.21
2019-03-05T08:55:31.317Z,48.98
2019-03-05T08:56:31.273Z,48.66
2019-03-05T08:57:31.273Z,47.37
2019-03-05T08:58:31.309Z,47.53
2019-03-05T08:59:32.698Z,48.98
2019-03-05T09:00:32.286Z,49.63
2019-03-05T09:01:31.235Z,49.79
2019-03-05T09:02:31.230Z,47.86
2019-03-05T09:03:31.224Z,47.86
2019-03-05T09:04:31.213Z,48.34
2019-03-05T09:05:31.201Z,48.82
2019-03-05T09:06:32.199Z,46.89
2019-03-05T09:07:31.208Z,46.41
2019-03-05T09:08:31.192Z,46.73
2019-03-05T09:09:31.178Z,46.57
2019-03-05T09:10:31.181Z,48.66
2019-03-05T09:11:31.184Z,49.31
2019-03-05T09:12:31.167Z,48.82
2019-03-05T09:13:32.943Z,48.02
2019-03-05T09:14:34.371Z,50.76
2019-03-05T09:15:31.153Z,49.31
2019-03-05T09:16:31.144Z,47.53
2019-03-05T09:17:31.144Z,48.66
2019-03-05T09:18:31.128Z,47.05
2019-03-05T09:19:31.125Z,47.86
2019-03-05T09:20:31.126Z,47.86
2019-03-05T09:21:31.105Z,47.70
2019-03-05T09:22:31.116Z,47.53
2019-03-05T09:23:31.116Z,48.18
2019-03-05T09:24:31.138Z,49.95
2019-03-05T09:25:31.133Z,48.82
2019-03-05T09:26:31.101Z,48.02
2019-03-05T09:27:31.097Z,49.47
2019-03-05T09:28:31.086Z,49.63
2019-03-05T09:29:31.073Z,49.15
2019-03-05T09:30:31.086Z,47.70
2019-03-05T09:31:31.095Z,47.37
2019-03-05T09:32:31.052Z,48.34
2019-03-05T09:33:31.045Z,48.66
2019-03-05T09:34:31.068Z,50.11
2019-03-05T09:35:31.034Z,48.98
2019-03-05T09:36:31.075Z,47.53
2019-03-05T09:37:31.000Z,46.57
2019-03-05T09:38:30.980Z,47.86
2019-03-05T09:39:30.995Z,46.89
2019-03-05T09:40:30.985Z,48.18
2019-03-05T09:41:30.995Z,47.70
2019-03-05T09:42:39.564Z,46.41
2019-03-05T09:43:32.979Z,47.86
2019-03-05T09:44:30.972Z,45.76
2019-03-05T09:45:30.976Z,47.05
2019-03-05T09:46:30.975Z,47.37
2019-03-05T09:47:30.954Z,49.47
2019-03-05T09:48:30.950Z,47.53
2019-03-05T09:49:30.945Z,46.89
2019-03-05T09:50:32.153Z,47.05
2019-03-05T09:51:31.937Z,48.50
2019-03-05T09:52:30.913Z,47.05
2019-03-05T09:53:30.910Z,46.73
2019-03-05T09:54:30.906Z,45.44
2019-03-05T09:55:30.930Z,46.08
2019-03-05T09:56:30.936Z,45.60
2019-03-05T09:57:30.910Z,45.76
2019-03-05T09:58:30.917Z,45.92
2019-03-05T09:59:30.925Z,45.44
2019-03-05T10:00:30.915Z,45.44
2019-03-05T10:01:30.913Z,45.44
2019-03-05T10:02:30.903Z,46.41
2019-03-05T10:03:30.895Z,47.05
2019-03-05T10:04:30.882Z,46.89
2019-03-05T10:05:30.866Z,48.98
2019-03-05T10:06:30.895Z,47.05
2019-03-05T10:07:30.861Z,47.37
2019-03-05T10:08:32.716Z,47.53
2019-03-05T10:09:31.889Z,46.41
2019-03-05T10:10:30.838Z,46.08
2019-03-05T10:11:31.150Z,47.05
2019-03-05T10:12:30.862Z,46.89
2019-03-05T10:13:30.815Z,48.34
2019-03-05T10:14:30.844Z,49.15
2019-03-05T10:15:30.814Z,47.05
2019-03-05T10:16:30.817Z,47.05
2019-03-05T10:20:08.722Z,46.25
2019-03-05T10:21:11.790Z,46.08
2019-03-05T10:22:09.782Z,45.44
2019-03-05T10:23:09.771Z,45.28
2019-03-05T10:24:10.932Z,45.60
2019-03-05T10:25:12.841Z,46.89
2019-03-05T10:26:10.663Z,48.02
2019-03-05T10:27:10.753Z,48.18
2019-03-05T10:28:42.251Z,48.98
2019-03-05T10:29:09.740Z,48.82
2019-03-05T10:30:24.791Z,47.37
2019-03-05T10:31:10.707Z,47.53
2019-03-05T10:32:09.736Z,48.02
2019-03-05T10:33:09.762Z,48.34
2019-03-05T10:34:09.695Z,48.34
2019-03-05T10:35:09.715Z,49.95
2019-03-05T10:36:09.712Z,48.98
2019-03-05T10:37:14.674Z,48.82
2019-03-05T10:38:11.700Z,49.47
2019-03-05T10:39:09.816Z,48.34
2019-03-05T10:40:09.694Z,47.70
2019-03-05T10:41:09.674Z,47.86
2019-03-05T10:42:09.690Z,49.31
2019-03-05T10:43:09.661Z,48.50
2019-03-05T10:44:09.675Z,51.88
2019-03-05T10:45:14.011Z,50.60
2019-03-05T10:46:11.312Z,49.15
2019-03-05T10:47:09.681Z,47.53
2019-03-05T10:48:09.635Z,48.02
2019-03-05T10:49:09.626Z,48.82
2019-03-05T10:50:15.231Z,48.66
2019-03-05T10:51:11.722Z,50.76
2019-03-05T10:52:09.714Z,49.15
2019-03-05T10:53:09.626Z,48.98
2019-03-05T10:54:09.603Z,49.79
2019-03-05T10:55:11.970Z,48.98
2019-03-05T10:56:10.315Z,49.47
2019-03-05T10:57:09.612Z,48.50
2019-03-05T10:58:09.574Z,48.66
2019-03-05T10:59:09.582Z,48.50
2019-03-05T11:00:09.616Z,48.82
2019-03-05T11:01:09.558Z,50.11
2019-03-05T11:02:09.609Z,49.15
2019-03-05T11:03:09.533Z,48.50
2019-03-05T11:04:09.520Z,48.02
2019-03-05T11:05:09.514Z,49.47
2019-03-05T11:06:09.511Z,48.98
2019-03-05T11:07:09.533Z,48.34
2019-03-05T11:08:09.493Z,48.66
2019-03-05T11:09:09.488Z,47.86
2019-03-05T11:10:09.490Z,47.05
2019-03-05T11:11:13.492Z,48.34
2019-03-05T11:12:10.487Z,49.63
2019-03-05T11:13:09.488Z,48.66
2019-03-05T11:14:09.453Z,48.98
2019-03-05T11:15:09.469Z,48.50
2019-03-05T11:16:10.569Z,49.47
2019-03-05T11:17:09.506Z,51.24
2019-03-05T11:18:09.479Z,49.95
2019-03-05T11:19:09.463Z,48.18
2019-03-05T11:20:09.473Z,49.79
2019-03-05T11:21:09.480Z,47.86
2019-03-05T11:22:09.434Z,48.02
2019-03-05T11:23:11.556Z,48.02
2019-03-05T11:24:09.434Z,48.02
2019-03-05T11:25:09.384Z,47.70
2019-03-05T11:26:09.470Z,48.18
2019-03-05T11:27:09.396Z,48.98
2019-03-05T11:28:09.369Z,49.47
2019-03-05T11:29:09.346Z,49.31
2019-03-05T11:30:09.335Z,48.82
2019-03-05T11:31:09.331Z,49.15
2019-03-05T11:32:09.347Z,48.82
2019-03-05T11:33:09.332Z,48.18
2019-03-05T11:34:09.358Z,48.50
2019-03-05T11:35:09.319Z,49.47
2019-03-05T11:36:09.312Z,48.02
2019-03-05T11:37:09.336Z,47.86
2019-03-05T11:38:09.311Z,48.34
2019-03-05T11:39:09.300Z,49.31
2019-03-05T11:40:09.298Z,49.31
2019-03-05T11:41:09.265Z,49.15
2019-03-05T11:42:09.287Z,50.27
2019-03-05T11:43:09.295Z,48.02
2019-03-05T11:44:09.267Z,49.15
2019-03-05T11:45:11.588Z,49.15
2019-03-05T11:46:10.346Z,50.60
2019-03-05T11:47:09.254Z,48.82
2019-03-05T11:48:09.263Z,48.02
2019-03-05T11:49:11.499Z,46.73
2019-03-05T11:50:09.306Z,47.53
2019-03-05T11:51:09.228Z,48.66
2019-03-05T11:52:09.214Z,46.73
2019-03-05T11:53:09.298Z,48.02
2019-03-05T11:54:09.201Z,48.34
2019-03-05T11:55:09.200Z,49.31
2019-03-05T11:56:09.823Z,49.15
2019-03-05T11:57:09.199Z,48.50
2019-03-05T11:58:09.204Z,46.57
2019-03-05T11:59:09.191Z,46.73
2019-03-05T12:00:09.184Z,47.05
2019-03-05T12:01:09.182Z,47.53
2019-03-05T12:02:09.948Z,48.02
2019-03-05T12:03:11.176Z,49.95
2019-03-05T12:04:09.145Z,50.11
2019-03-05T12:05:09.142Z,48.66
2019-03-05T12:06:09.152Z,47.86
2019-03-05T12:07:09.126Z,48.82
2019-03-05T12:08:09.129Z,48.98
2019-03-05T12:09:09.133Z,50.76
2019-03-05T12:17:06.950Z,48.50
2019-03-05T12:18:06.874Z,47.70
2019-03-05T12:19:06.875Z,47.70
2019-03-05T12:20:06.852Z,47.05
2019-03-05T12:21:06.852Z,48.18
2019-03-05T12:22:39.599Z,48.34
2019-03-05T12:23:10.376Z,45.92
2019-03-05T12:24:08.141Z,46.41
2019-03-05T12:25:06.819Z,47.53
2019-03-05T12:26:06.814Z,48.66
2019-03-05T12:27:06.811Z,49.15
2019-03-05T12:28:10.664Z,48.82
2019-03-05T12:29:07.808Z,48.98
2019-03-05T12:30:06.837Z,49.47
2019-03-05T12:31:06.872Z,49.47
2019-03-05T12:32:06.775Z,48.02
2019-03-05T12:33:06.847Z,49.15
2019-03-05T12:34:06.796Z,48.02
2019-03-05T12:35:06.775Z,47.37
2019-03-05T12:36:06.793Z,46.41
2019-03-05T12:37:06.786Z,46.41
2019-03-05T12:38:06.778Z,46.25
2019-03-05T12:39:06.783Z,47.37
2019-03-05T12:40:06.768Z,48.02
2019-03-05T12:41:06.758Z,47.53
2019-03-05T12:42:06.744Z,46.25
2019-03-05T12:43:06.740Z,47.53
2019-03-05T12:44:06.768Z,48.34
2019-03-05T12:45:06.768Z,47.21
2019-03-05T12:46:06.762Z,48.02
2019-03-05T12:47:06.750Z,48.66
2019-03-05T12:48:06.746Z,49.31
2019-03-05T12:49:06.755Z,48.50
2019-03-05T12:50:06.733Z,48.34
2019-03-05T12:51:06.726Z,49.79
2019-03-05T12:52:06.725Z,49.63
2019-03-05T12:53:06.717Z,48.50
2019-03-05T12:54:06.729Z,48.18
2019-03-05T12:55:06.700Z,46.89
2019-03-05T12:56:06.690Z,49.79
2019-03-05T12:57:06.685Z,48.66
2019-03-05T12:58:06.678Z,49.31
2019-03-05T12:59:06.680Z,48.82
2019-03-05T13:00:06.662Z,48.18
2019-03-05T13:01:06.663Z,46.57
2019-03-05T13:02:06.644Z,47.21